createdAt,value
2019-05-13T00:01:43.399Z,3.63
2019-05-13T00:04:14.702Z,2.93
2019-05-13T00:06:53.926Z,5.67
2019-05-13T00:09:19.275Z,2.87
2019-05-13T00:11:50.754Z,4.40
2019-05-13T00:14:23.935Z,4.57
2019-05-13T00:16:59.059Z,4.97
2019-05-13T00:19:30.622Z,5.23
2019-05-13T00:22:03.790Z,1.90
2019-05-13T00:24:35.266Z,3.93
2019-05-13T00:27:06.812Z,4.37
2019-05-13T00:29:38.330Z,2.00
2019-05-13T00:32:09.908Z,2.40
2019-05-13T00:34:44.355Z,4.43
2019-05-13T00:37:17.517Z,3.53
2019-05-13T00:39:49.841Z,4.83
2019-05-13T00:42:24.364Z,3.30
2019-05-13T00:44:56.071Z,3.17
2019-05-13T00:47:28.188Z,4.43
2019-05-13T00:50:00.070Z,2.83
2019-05-13T00:52:33.915Z,6.63
2019-05-13T00:55:09.859Z,3.20
2019-05-13T00:57:40.260Z,3.80
2019-05-13T01:00:14.127Z,4.90
2019-05-13T01:02:46.436Z,3.90
2019-05-13T01:05:18.800Z,4.27
2019-05-13T01:07:53.598Z,2.27
2019-05-13T01:10:24.960Z,7.07
2019-05-13T01:12:57.463Z,5.20
2019-05-13T01:15:29.413Z,3.87
2019-05-13T01:18:03.970Z,6.10
2019-05-13T01:20:35.705Z,4.67
2019-05-13T01:23:08.108Z,3.60
2019-05-13T01:25:40.863Z,6.37
2019-05-13T01:28:13.476Z,5.43
2019-05-13T01:30:45.383Z,5.70
2019-05-13T01:33:17.213Z,4.00
2019-05-13T01:35:49.440Z,4.60
2019-05-13T01:38:21.345Z,2.80
2019-05-13T01:40:54.100Z,5.20
2019-05-13T01:43:26.269Z,6.30
2019-05-13T01:45:58.618Z,5.73
2019-05-13T01:48:30.566Z,5.93
2019-05-13T01:51:03.862Z,2.93
2019-05-13T01:53:36.146Z,4.67
2019-05-13T01:56:08.434Z,2.07
2019-05-13T01:58:41.052Z,5.67
2019-05-13T02:01:13.845Z,5.07
2019-05-13T02:03:45.662Z,3.03
2019-05-13T02:06:18.118Z,3.17
2019-05-13T02:08:50.519Z,2.90
2019-05-13T02:11:23.937Z,3.47
2019-05-13T02:13:56.250Z,5.50
2019-05-13T02:16:28.868Z,3.80
2019-05-13T02:19:03.654Z,7.10
2019-05-13T02:21:35.231Z,4.53
2019-05-13T02:24:07.067Z,3.47
2019-05-13T02:26:39.367Z,4.50
2019-05-13T02:29:11.183Z,3.63
2019-05-13T02:31:50.930Z,8.67
2019-05-13T02:34:16.958Z,3.73
2019-05-13T02:36:52.503Z,4.27
2019-05-13T02:39:22.554Z,5.43
2019-05-13T02:41:54.830Z,4.20
2019-05-13T02:44:27.106Z,5.73
2019-05-13T02:47:02.966Z,5.80
2019-05-13T02:49:34.380Z,2.03
2019-05-13T02:52:06.254Z,2.37
2019-05-13T02:54:37.987Z,3.63
2019-05-13T02:57:12.437Z,4.57
2019-05-13T02:59:44.177Z,4.77
2019-05-13T03:02:16.592Z,3.03
2019-05-13T03:04:48.399Z,4.43
2019-05-13T03:07:23.324Z,5.00
2019-05-13T03:09:53.755Z,4.80
2019-05-13T03:12:27.040Z,6.60
2019-05-13T03:15:02.458Z,12.87
2019-05-13T03:17:38.562Z,8.97
2019-05-13T03:20:15.649Z,6.47
2019-05-13T03:22:44.683Z,21.80
2019-05-13T03:25:17.130Z,16.50
2019-05-13T03:27:49.013Z,6.20
2019-05-13T03:30:25.462Z,7.67
2019-05-13T03:33:01.310Z,7.77
2019-05-13T03:35:28.560Z,6.27
2019-05-13T03:38:03.272Z,4.13
2019-05-13T03:40:36.724Z,4.57
2019-05-13T03:43:12.613Z,9.30
2019-05-13T03:45:43.458Z,3.17
2019-05-13T03:48:16.766Z,3.40
2019-05-13T03:50:49.504Z,5.20
2019-05-13T03:53:23.378Z,4.77
2019-05-13T03:55:55.227Z,4.90
2019-05-13T03:58:28.412Z,5.03
2019-05-13T04:01:02.805Z,6.73
2019-05-13T04:03:35.050Z,5.37
2019-05-13T04:06:06.997Z,5.23
2019-05-13T04:08:43.245Z,7.37
2019-05-13T04:11:13.869Z,4.23
2019-05-13T04:13:46.269Z,4.30
2019-05-13T04:16:32.278Z,3.90
2019-05-13T04:19:03.255Z,6.63
2019-05-13T04:21:35.407Z,5.80
2019-05-13T04:24:07.863Z,7.90
2019-05-13T04:26:42.987Z,5.33
2019-05-13T04:29:13.804Z,6.80
2019-05-13T04:31:45.417Z,4.03
2019-05-13T04:34:16.931Z,7.50
2019-05-13T04:36:48.387Z,7.23
2019-05-13T04:39:36.710Z,5.87
2019-05-13T04:41:53.763Z,7.87
2019-05-13T04:44:25.933Z,6.80
2019-05-13T04:46:57.729Z,6.50
2019-05-13T04:49:32.608Z,7.03
2019-05-13T04:52:03.988Z,4.80
2019-05-13T04:54:37.580Z,4.97
2019-05-13T04:57:12.396Z,3.43
2019-05-13T04:59:44.643Z,8.80
2019-05-13T05:02:55.217Z,5.07
2019-05-13T05:05:53.091Z,7.00
2019-05-13T05:08:36.547Z,5.67
2019-05-13T05:11:32.172Z,3.00
2019-05-13T05:14:27.989Z,4.50
2019-05-13T05:17:42.753Z,5.07
2019-05-13T05:20:26.911Z,5.10
2019-05-13T05:23:31.914Z,3.80
2019-05-13T05:26:38.163Z,4.13
2019-05-13T05:29:26.982Z,3.77
2019-05-13T05:32:28.778Z,5.53
2019-05-13T05:35:45.830Z,5.60
2019-05-13T05:38:37.417Z,3.40
2019-05-13T05:41:12.172Z,5.30
2019-05-13T05:43:46.371Z,3.90
2019-05-13T05:46:21.863Z,4.57
2019-05-13T05:48:54.011Z,6.47
2019-05-13T05:51:26.588Z,5.23
2019-05-13T05:54:02.368Z,4.63
2019-05-13T05:56:34.206Z,4.03
2019-05-13T05:59:06.338Z,2.80
2019-05-13T06:01:42.258Z,1.73
2019-05-13T06:04:14.795Z,2.13
2019-05-13T06:06:49.098Z,2.83
2019-05-13T06:09:21.441Z,2.10
2019-05-13T06:11:54.146Z,2.63
2019-05-13T06:14:26.563Z,6.20
2019-05-13T06:16:59.104Z,4.57
2019-05-13T06:19:31.852Z,3.53
2019-05-13T06:22:04.265Z,4.50
2019-05-13T06:24:36.655Z,1.77
2019-05-13T06:27:09.125Z,1.97
2019-05-13T06:29:42.349Z,2.60
2019-05-13T06:32:21.999Z,2.77
2019-05-13T06:34:52.290Z,4.60
2019-05-13T06:37:23.245Z,4.17
2019-05-13T06:39:55.544Z,3.20
2019-05-13T06:42:27.592Z,2.57
2019-05-13T06:45:01.728Z,4.10
2019-05-13T06:47:36.099Z,1.60
2019-05-13T06:50:07.867Z,2.40
2019-05-13T06:52:42.504Z,2.30
2019-05-13T06:55:14.235Z,4.07
2019-05-13T06:57:46.751Z,3.60
2019-05-13T07:00:21.379Z,3.20
2019-05-13T07:02:53.239Z,4.30
2019-05-13T07:05:25.117Z,2.80
2019-05-13T07:07:56.928Z,2.00
2019-05-13T07:10:28.802Z,2.20
2019-05-13T07:13:02.169Z,1.53
2019-05-13T07:15:35.871Z,4.23
2019-05-13T07:18:07.664Z,2.00
2019-05-13T07:20:42.398Z,3.17
2019-05-13T07:23:13.539Z,3.20
2019-05-13T07:25:47.628Z,2.47
2019-05-13T07:28:21.933Z,1.00
2019-05-13T07:30:53.209Z,2.77
2019-05-13T07:33:25.713Z,1.40
2019-05-13T07:35:58.817Z,4.17
2019-05-13T07:38:32.373Z,1.60
2019-05-13T07:41:06.784Z,1.80
2019-05-13T07:43:38.723Z,2.10
2019-05-13T07:46:12.608Z,1.00
2019-05-13T07:48:44.097Z,1.77
2019-05-13T07:51:16.411Z,2.20
2019-05-13T07:53:48.681Z,1.80
2019-05-13T07:56:21.882Z,1.30
2019-05-13T07:58:53.903Z,3.63
2019-05-13T08:01:25.787Z,2.97
2019-05-13T08:03:58.137Z,1.43
2019-05-13T08:06:32.346Z,1.97
2019-05-13T08:09:07.305Z,1.20
2019-05-13T08:11:56.233Z,1.93
2019-05-13T08:14:13.589Z,1.47
2019-05-13T08:16:45.835Z,2.00
2019-05-13T08:19:17.810Z,3.10
2019-05-13T08:21:51.349Z,3.47
2019-05-13T08:24:23.837Z,2.43
2019-05-13T08:26:55.614Z,2.40
2019-05-13T08:29:27.619Z,2.90
2019-05-13T08:32:01.873Z,2.73
2019-05-13T08:34:33.744Z,0.90
2019-05-13T08:37:05.595Z,1.30
2019-05-13T08:39:38.687Z,1.00
2019-05-13T08:42:15.806Z,1.37
2019-05-13T08:44:45.778Z,1.10
2019-05-13T08:47:17.927Z,1.00
2019-05-13T08:49:51.866Z,3.93
2019-05-13T08:52:23.714Z,1.17
2019-05-13T08:54:55.692Z,1.90
2019-05-13T08:57:27.915Z,1.47
2019-05-13T09:00:04.072Z,4.67
2019-05-13T09:02:33.397Z,1.03
2019-05-13T09:05:06.191Z,1.80
2019-05-13T09:07:41.259Z,0.73
2019-05-13T09:10:14.959Z,2.67
2019-05-13T09:12:46.883Z,1.50
2019-05-13T09:15:18.935Z,1.93
2019-05-13T09:17:51.758Z,0.90
2019-05-13T09:20:24.596Z,1.60
2019-05-13T09:22:57.869Z,2.10
2019-05-13T09:25:31.988Z,1.67
2019-05-13T09:28:03.799Z,0.73
2019-05-13T09:30:37.365Z,0.80
2019-05-13T09:33:11.456Z,1.30
2019-05-13T09:35:43.976Z,3.23
2019-05-13T09:38:15.829Z,1.90
2019-05-13T09:40:48.078Z,1.03
2019-05-13T09:43:22.161Z,0.80
2019-05-13T09:45:53.828Z,1.07
2019-05-13T09:48:25.599Z,1.17
2019-05-13T09:50:58.100Z,1.00
2019-05-13T09:53:32.561Z,1.20
2019-05-13T09:56:04.384Z,3.70
2019-05-13T09:58:36.550Z,1.10
2019-05-13T10:01:11.474Z,2.07
2019-05-13T10:03:53.726Z,2.77
2019-05-13T10:06:17.022Z,2.00
2019-05-13T10:08:48.898Z,2.10
2019-05-13T10:11:21.834Z,2.27
2019-05-13T10:13:53.658Z,3.77
2019-05-13T10:16:25.727Z,1.10
2019-05-13T10:18:58.227Z,2.23
2019-05-13T10:21:32.685Z,2.90
2019-05-13T10:24:04.515Z,1.43
2019-05-13T10:26:37.037Z,0.77
2019-05-13T10:29:11.629Z,2.00
2019-05-13T10:31:42.874Z,1.37
2019-05-13T10:34:15.052Z,1.67
2019-05-13T10:36:47.524Z,1.00
2019-05-13T10:39:22.171Z,0.80
2019-05-13T10:41:53.115Z,1.23
2019-05-13T10:44:25.164Z,1.73
2019-05-13T10:46:57.152Z,1.23
2019-05-13T10:49:33.100Z,2.47
2019-05-13T10:52:04.867Z,0.93
2019-05-13T10:54:37.362Z,0.70
2019-05-13T10:57:09.609Z,0.73
2019-05-13T10:59:41.906Z,0.70
2019-05-13T11:02:13.912Z,2.20
2019-05-13T11:04:46.234Z,0.80
2019-05-13T11:07:18.679Z,0.80
2019-05-13T11:09:52.655Z,0.67
2019-05-13T11:12:28.399Z,1.70
2019-05-13T11:14:58.222Z,0.80
2019-05-13T11:17:31.344Z,1.23
2019-05-13T11:20:03.970Z,1.30
2019-05-13T11:22:36.455Z,0.93
2019-05-13T11:25:08.767Z,1.53
2019-05-13T11:27:42.126Z,1.27
2019-05-13T11:30:15.230Z,2.70
2019-05-13T11:32:47.894Z,2.13
2019-05-13T11:35:20.195Z,2.33
2019-05-13T11:37:53.765Z,1.70
2019-05-13T11:40:26.899Z,1.97
2019-05-13T11:43:01.748Z,0.80
2019-05-13T11:45:33.182Z,0.50
2019-05-13T11:48:05.436Z,0.90
2019-05-13T11:50:37.734Z,0.60
2019-05-13T11:53:30.235Z,0.70
2019-05-13T11:55:42.981Z,0.73
2019-05-13T11:58:15.367Z,1.53
2019-05-13T12:00:54.656Z,1.50
2019-05-13T12:03:26.554Z,0.70
2019-05-13T12:06:01.544Z,1.07
2019-05-13T12:08:34.317Z,1.87
2019-05-13T12:11:06.336Z,0.90
2019-05-13T12:13:38.821Z,4.00
2019-05-13T12:16:12.821Z,0.90
2019-05-13T12:18:44.737Z,1.07
2019-05-13T12:21:17.277Z,0.77
2019-05-13T12:23:52.451Z,0.60
2019-05-13T12:26:24.065Z,3.23
2019-05-13T12:28:56.667Z,2.03
2019-05-13T12:31:29.012Z,1.63
2019-05-13T12:34:03.554Z,0.90
2019-05-13T12:36:35.307Z,0.70
2019-05-13T12:39:13.832Z,0.80
2019-05-13T12:41:43.178Z,1.63
2019-05-13T12:44:15.127Z,0.93
2019-05-13T12:46:50.336Z,1.00
2019-05-13T12:49:22.055Z,1.67
2019-05-13T12:52:00.744Z,1.03
2019-05-13T12:54:28.775Z,0.50
2019-05-13T12:57:03.552Z,1.80
2019-05-13T12:59:35.242Z,2.00
2019-05-13T13:02:07.127Z,0.70
2019-05-13T13:04:39.177Z,1.00
2019-05-13T13:07:13.387Z,4.00
2019-05-13T13:09:45.659Z,1.40
2019-05-13T13:12:17.665Z,1.83
2019-05-13T13:14:54.054Z,1.63
2019-05-13T13:17:24.360Z,0.67
2019-05-13T13:20:04.703Z,0.63
2019-05-13T13:22:32.070Z,0.97
2019-05-13T13:25:04.927Z,1.50
2019-05-13T13:28:03.795Z,3.20
2019-05-13T13:30:11.458Z,2.87
2019-05-13T13:32:45.417Z,1.17
2019-05-13T13:35:17.675Z,1.43
2019-05-13T13:37:52.904Z,1.80
2019-05-13T13:40:29.166Z,3.33
2019-05-13T13:42:57.921Z,1.87
2019-05-13T13:45:33.607Z,0.70
2019-05-13T13:48:05.051Z,1.07
2019-05-13T13:50:36.929Z,1.33
2019-05-13T13:53:13.508Z,1.93
2019-05-13T13:55:44.580Z,1.00
2019-05-13T13:58:17.073Z,1.27
2019-05-13T14:01:01.740Z,2.77
2019-05-13T14:03:23.566Z,0.90
2019-05-13T14:05:55.999Z,1.63
2019-05-13T14:08:30.269Z,0.60
2019-05-13T14:11:02.599Z,0.73
2019-05-13T14:13:34.954Z,1.23
2019-05-13T14:16:22.423Z,1.40
2019-05-13T14:18:41.938Z,1.53
2019-05-13T14:21:14.381Z,0.83
2019-05-13T14:23:46.385Z,0.70
2019-05-13T14:26:21.953Z,2.53
2019-05-13T14:28:53.865Z,3.20
2019-05-13T14:31:25.846Z,1.03
2019-05-13T14:33:58.234Z,1.33
2019-05-13T14:36:30.658Z,2.70
2019-05-13T14:39:02.888Z,1.17
2019-05-13T14:41:34.513Z,2.73
2019-05-13T14:44:06.161Z,1.50
2019-05-13T14:46:47.112Z,2.27
2019-05-13T14:49:12.310Z,1.37
2019-05-13T14:51:44.327Z,1.13
2019-05-13T14:54:15.791Z,2.17
2019-05-13T14:56:47.254Z,1.67
2019-05-13T14:59:18.727Z,1.10
2019-05-13T15:01:51.879Z,1.83
2019-05-13T15:04:23.333Z,1.50
2019-05-13T15:06:54.858Z,1.10
2019-05-13T15:09:26.380Z,1.33
2019-05-13T15:11:57.923Z,1.27
2019-05-13T15:14:31.767Z,2.50
2019-05-13T15:17:07.038Z,1.97
2019-05-13T15:19:35.691Z,1.00
2019-05-13T15:22:07.492Z,2.90
2019-05-13T15:24:41.129Z,2.43
2019-05-13T15:27:12.778Z,1.93
2019-05-13T15:29:44.861Z,2.40
2019-05-13T15:32:32.727Z,0.90
2019-05-13T15:35:04.739Z,1.43
2019-05-13T15:37:36.595Z,1.73
2019-05-13T15:40:11.553Z,1.77
2019-05-13T15:42:43.401Z,1.87
2019-05-13T15:45:15.980Z,1.50
2019-05-13T15:47:47.958Z,2.40
2019-05-13T15:50:21.463Z,3.43
2019-05-13T15:52:53.859Z,1.30
2019-05-13T15:55:26.489Z,1.47
2019-05-13T15:57:58.921Z,2.73
2019-05-13T16:00:31.038Z,1.27
2019-05-13T16:03:04.649Z,1.13
2019-05-13T16:05:36.428Z,2.23
2019-05-13T16:08:08.710Z,0.87
2019-05-13T16:10:42.015Z,2.33
2019-05-13T16:13:14.659Z,1.73
2019-05-13T16:15:47.071Z,2.00
2019-05-13T16:18:18.597Z,1.13
2019-05-13T16:20:51.964Z,1.90
2019-05-13T16:23:24.653Z,2.77
2019-05-13T16:25:56.219Z,1.40
2019-05-13T16:28:27.835Z,2.57
2019-05-13T16:31:01.992Z,2.50
2019-05-13T16:33:32.733Z,2.00
2019-05-13T16:36:04.374Z,1.00
2019-05-13T16:38:35.867Z,0.90
2019-05-13T16:41:07.427Z,1.20
2019-05-13T16:43:39.001Z,4.00
2019-05-13T16:46:12.248Z,3.07
2019-05-13T16:48:43.705Z,1.03
2019-05-13T16:51:15.221Z,1.53
2019-05-13T16:53:46.791Z,1.10
2019-05-13T16:56:26.366Z,1.30
2019-05-13T16:58:52.131Z,1.53
2019-05-13T17:01:23.862Z,1.33
2019-05-13T17:03:55.490Z,0.70
2019-05-13T17:06:27.113Z,2.50
2019-05-13T17:08:59.077Z,1.23
2019-05-13T17:11:32.203Z,1.73
2019-05-13T17:14:05.781Z,1.33
2019-05-13T17:16:43.417Z,2.10
2019-05-13T17:19:15.021Z,1.03
2019-05-13T17:21:46.645Z,0.97
2019-05-13T17:24:18.273Z,1.83
2019-05-13T17:26:52.124Z,3.43
2019-05-13T17:29:23.518Z,1.37
2019-05-13T17:31:55.159Z,1.93
2019-05-13T17:34:26.780Z,1.83
2019-05-13T17:36:58.810Z,2.00
2019-05-13T17:39:32.149Z,1.87
2019-05-13T17:42:03.773Z,1.90
2019-05-13T17:44:35.413Z,2.30
2019-05-13T17:47:06.963Z,1.67
2019-05-13T17:49:38.547Z,1.60
2019-05-13T17:52:11.540Z,1.13
2019-05-13T17:54:43.627Z,3.27
2019-05-13T17:57:15.231Z,4.33
2019-05-13T17:59:47.997Z,1.70
2019-05-13T18:02:32.449Z,2.00
2019-05-13T18:05:05.595Z,1.60
2019-05-13T18:07:37.511Z,1.50
2019-05-13T18:10:12.019Z,0.90
2019-05-13T18:12:43.760Z,1.90
2019-05-13T18:15:15.365Z,2.60
2019-05-13T18:17:46.966Z,1.20
2019-05-13T18:20:18.760Z,2.37
2019-05-13T18:22:52.333Z,1.77
2019-05-13T18:25:23.655Z,3.27
2019-05-13T18:27:55.253Z,2.10
2019-05-13T18:30:27.192Z,2.87
2019-05-13T18:33:01.045Z,5.60
2019-05-13T18:35:32.078Z,2.70
2019-05-13T18:38:03.633Z,2.77
2019-05-13T18:40:35.243Z,1.70
2019-05-13T18:43:06.873Z,2.20
2019-05-13T18:45:38.439Z,2.17
2019-05-13T18:48:12.126Z,1.30
2019-05-13T18:50:43.850Z,3.63
2019-05-13T18:53:15.451Z,3.87
2019-05-13T18:55:47.043Z,1.83
2019-05-13T18:58:18.686Z,2.33
2019-05-13T19:00:52.252Z,3.27
2019-05-13T19:03:23.480Z,1.77
2019-05-13T19:05:55.048Z,2.83
2019-05-13T19:08:26.520Z,3.80
2019-05-13T19:10:58.208Z,1.60
2019-05-13T19:13:32.098Z,1.83
2019-05-13T19:16:03.109Z,3.27
2019-05-13T19:18:34.715Z,3.60
2019-05-13T19:21:06.284Z,1.70
2019-05-13T19:23:37.823Z,2.73
2019-05-13T19:26:11.221Z,2.23
2019-05-13T19:28:42.964Z,5.23
2019-05-13T19:31:14.720Z,6.60
2019-05-13T19:33:46.236Z,2.30
2019-05-13T19:36:17.829Z,2.40
2019-05-13T19:38:51.239Z,1.47
2019-05-13T19:41:22.967Z,2.70
2019-05-13T19:43:54.606Z,1.87
2019-05-13T19:46:26.109Z,3.20
2019-05-13T19:48:57.798Z,5.03
2019-05-13T19:51:32.075Z,1.87
2019-05-13T19:54:02.498Z,3.00
2019-05-13T19:56:34.453Z,4.30
2019-05-13T19:59:07.097Z,3.60
2019-05-13T20:01:38.579Z,3.97
2019-05-13T20:04:10.145Z,4.83
2019-05-13T20:06:41.711Z,3.60
2019-05-13T20:09:13.168Z,4.13
2019-05-13T20:11:44.696Z,4.00
2019-05-13T20:14:16.291Z,4.40
2019-05-13T20:16:47.811Z,4.17
2019-05-13T20:19:19.398Z,4.13
2019-05-13T20:21:52.057Z,6.97
2019-05-13T20:24:24.799Z,5.67
2019-05-13T20:26:57.951Z,4.33
2019-05-13T20:29:29.435Z,5.97
2019-05-13T20:32:01.439Z,5.80
2019-05-13T20:34:33.193Z,5.60
2019-05-13T20:37:04.800Z,5.07
2019-05-13T20:39:36.364Z,5.10
2019-05-13T20:42:07.878Z,4.57
2019-05-13T20:44:41.800Z,6.23
2019-05-13T20:47:12.580Z,6.37
2019-05-13T20:49:57.126Z,7.23
2019-05-13T20:52:17.162Z,5.33
2019-05-13T20:54:50.994Z,6.27
2019-05-13T20:57:22.359Z,6.37
2019-05-13T20:59:55.046Z,6.63
2019-05-13T21:02:26.569Z,8.23
2019-05-13T21:04:58.122Z,6.50
2019-05-13T21:07:31.991Z,10.20
2019-05-13T21:10:03.088Z,4.57
2019-05-13T21:12:34.650Z,6.37
2019-05-13T21:15:06.397Z,7.07
2019-05-13T21:17:37.865Z,9.20
2019-05-13T21:20:19.688Z,6.50
2019-05-13T21:22:43.119Z,5.50
2019-05-13T21:25:15.011Z,8.70
2019-05-13T21:27:46.617Z,9.77
2019-05-13T21:30:22.090Z,7.50
2019-05-13T21:32:53.381Z,8.27
2019-05-13T21:35:25.223Z,7.33
2019-05-13T21:37:56.762Z,5.63
2019-05-13T21:40:29.471Z,7.00
2019-05-13T21:43:01.031Z,5.20
2019-05-13T21:45:32.554Z,7.63
2019-05-13T21:48:04.053Z,8.97
2019-05-13T21:50:37.415Z,6.93
2019-05-13T21:53:08.727Z,10.63
2019-05-13T21:55:41.390Z,5.93
2019-05-13T21:58:14.166Z,7.83
2019-05-13T22:00:47.345Z,7.73
2019-05-13T22:03:18.985Z,6.90
2019-05-13T22:05:51.531Z,5.20
2019-05-13T22:08:23.539Z,6.33
2019-05-13T22:10:55.181Z,6.87
2019-05-13T22:13:26.990Z,7.70
2019-05-13T22:16:01.622Z,7.87
2019-05-13T22:18:32.981Z,8.17
2019-05-13T22:21:04.492Z,7.67
2019-05-13T22:23:36.415Z,5.80
2019-05-13T22:26:07.888Z,8.83
2019-05-13T22:28:41.618Z,5.33
2019-05-13T22:31:12.880Z,5.47
2019-05-13T22:33:45.302Z,5.50
2019-05-13T22:36:17.859Z,5.70
2019-05-13T22:38:51.518Z,4.20
2019-05-13T22:41:22.642Z,6.40
2019-05-13T22:43:58.385Z,6.47
2019-05-13T22:46:27.769Z,6.27
2019-05-13T22:49:01.173Z,6.53
2019-05-13T22:51:32.378Z,6.60
2019-05-13T22:54:04.316Z,7.17
2019-05-13T22:56:35.851Z,5.87
2019-05-13T22:59:07.350Z,8.47
2019-05-13T23:01:38.873Z,6.93
2019-05-13T23:04:11.467Z,8.87
2019-05-13T23:06:43.205Z,5.63
2019-05-13T23:09:14.699Z,5.47
2019-05-13T23:11:46.145Z,8.47
2019-05-13T23:14:17.856Z,4.87
2019-05-13T23:16:49.303Z,7.40
2019-05-13T23:19:21.710Z,7.93
2019-05-13T23:21:54.915Z,5.57
2019-05-13T23:24:26.415Z,7.70
2019-05-13T23:26:57.867Z,6.20
2019-05-13T23:29:31.724Z,12.10
2019-05-13T23:32:02.537Z,5.27
2019-05-13T23:34:34.534Z,7.27
2019-05-13T23:37:06.041Z,6.90
2019-05-13T23:39:38.363Z,7.13
2019-05-13T23:42:11.891Z,9.23
2019-05-13T23:44:44.505Z,7.13
2019-05-13T23:47:16.362Z,9.80
2019-05-13T23:49:48.162Z,8.43
2019-05-13T23:52:21.927Z,7.27
2019-05-13T23:54:53.217Z,7.53
2019-05-13T23:57:24.684Z,7.60
2019-05-13T23:59:57.319Z,6.27
